Time;durP1;ratioP1;P1;durP2;ratioP2;P2;SDS_P1;SDS_P2;PMS_P1;PMS_P2;Temp;Humidity;BMP_temperature;BMP_pressure;BME280_temperature;BME280_humidity;BME280_pressure;Samples;Min_cycle;Max_cycle;Signal;HPM_P1;HPM_P2
2022/05/14 00:01:15;;;;;;;7.13;3.63;;;11.20;99.90;;;;;;5014999;28;20045;-73
2022/05/14 00:03:41;;;;;;;6.60;3.40;;;11.20;99.90;;;;;;5013849;28;20053;-72
2022/05/14 00:06:11;;;;;;;8.25;3.88;;;11.20;99.90;;;;;;4981684;28;20118;-73
2022/05/14 00:08:37;;;;;;;6.35;3.10;;;11.10;99.90;;;;;;5014666;28;20049;-73
2022/05/14 00:13:48;;;;;;;7.38;3.65;;;11.00;99.90;;;;;;5014523;28;20062;-72
2022/05/14 00:16:15;;;;;;;8.07;2.67;;;10.90;99.90;;;;;;5014717;28;20053;-73
2022/05/14 00:18:41;;;;;;;5.75;2.90;;;11.00;99.90;;;;;;5014280;28;20046;-72
2022/05/14 00:21:07;;;;;;;5.55;2.65;;;10.90;99.90;;;;;;4997289;28;20430;-72
2022/05/14 00:23:33;;;;;;;5.97;3.00;;;10.90;99.90;;;;;;5013342;28;20133;-73
2022/05/14 00:25:59;;;;;;;6.63;2.80;;;10.90;99.90;;;;;;4998080;28;20048;-72
2022/05/14 00:28:25;;;;;;;4.13;2.58;;;10.90;99.90;;;;;;5013516;28;20379;-72
2022/05/14 00:30:51;;;;;;;7.03;3.47;;;10.80;99.90;;;;;;5014057;28;20389;-72
2022/05/14 00:33:17;;;;;;;5.50;2.60;;;10.80;99.90;;;;;;5014006;28;20050;-73
2022/05/14 00:35:43;;;;;;;9.50;3.20;;;10.80;99.90;;;;;;5013454;28;20046;-73
2022/05/14 00:38:10;;;;;;;5.85;3.25;;;10.80;99.90;;;;;;5013507;28;20045;-72
2022/05/14 00:40:39;;;;;;;6.00;3.10;;;10.80;99.90;;;;;;5014354;28;20050;-72
2022/05/14 00:43:06;;;;;;;8.65;2.95;;;10.80;99.90;;;;;;5013949;28;20052;-71
2022/05/14 00:45:35;;;;;;;8.65;2.78;;;10.80;99.90;;;;;;5014526;28;20442;-73
2022/05/14 00:48:01;;;;;;;7.35;3.85;;;10.90;99.90;;;;;;5014681;28;20053;-72
2022/05/14 00:50:47;;;;;;;6.45;3.08;;;10.90;99.90;;;;;;5013165;28;20038;-73
2022/05/14 00:53:20;;;;;;;5.93;2.88;;;10.90;99.90;;;;;;5014245;28;20137;-72
2022/05/14 00:55:50;;;;;;;3.88;2.78;;;10.90;99.90;;;;;;5014091;28;20046;-72
2022/05/14 00:58:42;;;;;;;5.78;3.10;;;10.90;99.90;;;;;;5012962;28;20119;-68
2022/05/14 01:01:08;;;;;;;4.60;2.80;;;11.00;99.90;;;;;;5014594;28;20046;-69
2022/05/14 01:03:34;;;;;;;6.72;2.92;;;10.90;99.90;;;;;;4996664;28;20445;-69
2022/05/14 01:06:04;;;;;;;6.00;2.97;;;10.90;99.90;;;;;;5013886;28;20092;-69
2022/05/14 01:08:30;;;;;;;6.40;3.38;;;10.80;99.90;;;;;;5014449;28;20088;-69
2022/05/14 01:10:57;;;;;;;8.13;3.22;;;10.80;99.90;;;;;;5014547;28;20046;-69
2022/05/14 01:13:24;;;;;;;5.80;2.85;;;10.70;99.90;;;;;;5013749;28;20045;-68
2022/05/14 01:16:02;;;;;;;5.95;2.90;;;10.70;99.90;;;;;;5013903;28;20236;-69
2022/05/14 01:18:30;;;;;;;6.07;2.63;;;10.70;99.90;;;;;;5014318;28;20038;-68
2022/05/14 01:21:02;;;;;;;6.80;2.85;;;10.70;99.90;;;;;;5013438;28;20557;-69
2022/05/14 01:26:36;;;;;;;6.40;2.92;;;10.70;99.90;;;;;;5013684;28;20107;-69
2022/05/14 01:29:08;;;;;;;6.60;3.00;;;10.70;99.90;;;;;;5014177;28;20080;-69
2022/05/14 01:31:35;;;;;;;6.90;3.20;;;10.70;99.90;;;;;;5013665;28;20422;-69
2022/05/14 01:34:07;;;;;;;6.63;2.80;;;10.70;99.90;;;;;;5013683;28;20053;-69
2022/05/14 01:36:35;;;;;;;7.30;2.75;;;10.70;99.90;;;;;;5013696;28;20056;-69
2022/05/14 01:39:02;;;;;;;10.27;3.22;;;10.70;99.90;;;;;;5013328;28;20046;-69
2022/05/14 01:41:27;;;;;;;6.18;2.67;;;10.70;99.90;;;;;;5014403;28;20046;-69
2022/05/14 01:43:53;;;;;;;7.65;3.05;;;10.70;99.90;;;;;;5013758;28;20493;-69
2022/05/14 01:46:19;;;;;;;7.05;2.85;;;10.70;99.90;;;;;;5013621;28;20054;-69
2022/05/14 01:48:46;;;;;;;5.50;2.75;;;10.70;99.90;;;;;;5016654;28;20046;-72
2022/05/14 01:51:13;;;;;;;5.97;2.85;;;10.70;99.90;;;;;;5017448;28;20054;-69
2022/05/14 01:53:38;;;;;;;7.93;3.22;;;10.70;99.90;;;;;;5017455;28;20116;-70
2022/05/14 01:56:04;;;;;;;6.20;2.90;;;10.70;99.90;;;;;;5017184;28;20100;-69
2022/05/14 01:58:36;;;;;;;5.25;2.65;;;10.70;99.90;;;;;;5016085;28;20046;-69
2022/05/14 02:01:12;;;;;;;7.80;3.63;;;10.70;99.90;;;;;;5017851;28;20048;-70
2022/05/14 02:03:38;;;;;;;13.93;2.75;;;10.70;99.90;;;;;;5017270;28;20046;-69
2022/05/14 02:06:05;;;;;;;6.85;2.80;;;10.60;99.90;;;;;;5016857;28;20483;-69
2022/05/14 02:08:31;;;;;;;4.50;2.60;;;10.70;99.90;;;;;;5017127;28;20046;-69
2022/05/14 02:10:57;;;;;;;6.53;2.72;;;10.70;99.90;;;;;;5017133;28;20049;-69
2022/05/14 02:13:24;;;;;;;6.20;2.80;;;10.80;99.90;;;;;;5016967;28;20085;-69
2022/05/14 02:15:51;;;;;;;5.82;2.70;;;10.80;99.90;;;;;;5017491;28;20056;-69
2022/05/14 02:18:18;;;;;;;7.75;4.28;;;10.70;99.90;;;;;;5015763;28;20046;-70
2022/05/14 02:20:43;;;;;;;9.07;3.13;;;10.70;99.90;;;;;;5016885;28;20054;-69
2022/05/14 02:23:09;;;;;;;6.03;2.65;;;10.70;99.90;;;;;;5016916;28;20072;-69
2022/05/14 02:25:35;;;;;;;7.80;2.80;;;10.70;99.90;;;;;;5016622;28;20467;-70
2022/05/14 02:28:01;;;;;;;6.03;3.00;;;10.70;99.90;;;;;;5016684;28;20046;-70
2022/05/14 02:30:27;;;;;;;6.07;2.85;;;10.70;99.90;;;;;;5016647;28;20078;-69
2022/05/14 02:32:52;;;;;;;5.78;2.85;;;10.70;99.90;;;;;;5016700;28;20054;-69
2022/05/14 02:35:18;;;;;;;5.03;2.78;;;10.60;99.90;;;;;;5017152;28;20053;-69
2022/05/14 02:37:44;;;;;;;5.45;3.13;;;10.60;99.90;;;;;;5016609;28;20128;-69
2022/05/14 02:40:10;;;;;;;7.15;2.80;;;10.50;99.90;;;;;;5016444;28;20045;-69
2022/05/14 02:42:36;;;;;;;4.53;2.88;;;10.40;99.90;;;;;;5016689;28;20056;-69
2022/05/14 02:45:02;;;;;;;7.95;3.20;;;10.30;99.90;;;;;;5016071;28;20414;-69
2022/05/14 02:47:30;;;;;;;6.57;3.78;;;10.30;99.90;;;;;;5016874;28;20080;-69
2022/05/14 02:49:56;;;;;;;5.15;2.92;;;10.20;99.90;;;;;;5016321;28;20053;-71
2022/05/14 02:52:23;;;;;;;5.45;2.90;;;10.20;99.90;;;;;;5016594;28;20388;-69
2022/05/14 02:54:49;;;;;;;5.95;3.17;;;10.20;99.90;;;;;;5016507;28;20054;-70
2022/05/14 02:57:16;;;;;;;8.15;3.13;;;10.10;99.90;;;;;;5016211;28;20054;-69
2022/05/14 02:59:41;;;;;;;12.38;3.70;;;10.00;99.90;;;;;;5015016;28;20042;-69
2022/05/14 03:02:07;;;;;;;7.03;2.85;;;10.00;99.90;;;;;;5014812;28;20050;-69
2022/05/14 03:04:37;;;;;;;6.10;3.20;;;10.00;99.90;;;;;;5016669;28;20053;-69
2022/05/14 03:07:07;;;;;;;6.63;3.47;;;9.90;99.90;;;;;;5016369;28;20050;-69
2022/05/14 03:09:35;;;;;;;6.20;3.33;;;9.90;99.90;;;;;;5016873;28;20039;-69
2022/05/14 03:12:01;;;;;;;7.95;3.60;;;9.90;99.90;;;;;;5015925;28;20137;-69
2022/05/14 03:14:26;;;;;;;8.52;3.70;;;9.90;99.90;;;;;;5015859;28;20056;-70
2022/05/14 03:16:52;;;;;;;10.45;3.80;;;9.80;99.90;;;;;;5016341;28;20042;-69
2022/05/14 03:19:18;;;;;;;11.48;3.65;;;9.80;99.90;;;;;;5015718;28;20046;-70
2022/05/14 03:21:44;;;;;;;9.48;3.83;;;9.70;99.90;;;;;;5015983;28;20045;-70
2022/05/14 03:24:10;;;;;;;8.30;3.78;;;9.70;99.90;;;;;;5015262;28;20500;-69
2022/05/14 03:26:37;;;;;;;6.47;3.67;;;9.70;99.90;;;;;;5015675;28;20050;-69
2022/05/14 03:29:03;;;;;;;11.82;3.72;;;9.70;99.90;;;;;;5015726;28;20073;-69
2022/05/14 03:31:29;;;;;;;9.48;3.58;;;9.60;99.90;;;;;;5014666;28;20037;-69
2022/05/14 03:33:55;;;;;;;5.68;3.50;;;9.60;99.90;;;;;;5014420;28;20050;-70
2022/05/14 03:36:21;;;;;;;8.52;3.42;;;9.50;99.90;;;;;;5015463;28;20053;-69
2022/05/14 03:38:46;;;;;;;8.70;3.90;;;9.50;99.90;;;;;;5015349;28;20041;-69
2022/05/14 03:41:12;;;;;;;10.65;3.83;;;9.50;99.90;;;;;;5015353;28;20050;-69
2022/05/14 03:43:38;;;;;;;9.13;4.10;;;9.50;99.90;;;;;;5015267;28;20387;-69
2022/05/14 03:46:04;;;;;;;8.38;3.83;;;9.50;99.90;;;;;;5015131;28;20057;-69
2022/05/14 03:48:30;;;;;;;9.25;4.07;;;9.50;99.90;;;;;;5015174;28;20450;-69
2022/05/14 03:50:56;;;;;;;9.23;3.92;;;9.50;99.90;;;;;;5015157;28;20042;-69
2022/05/14 03:53:22;;;;;;;8.95;3.50;;;9.50;99.90;;;;;;5015143;28;20160;-69
2022/05/14 03:55:48;;;;;;;6.03;3.20;;;9.50;99.90;;;;;;5015072;28;20136;-69
2022/05/14 03:58:14;;;;;;;8.40;4.05;;;9.50;99.90;;;;;;5014944;28;20046;-69
2022/05/14 04:00:40;;;;;;;10.35;3.88;;;9.50;99.90;;;;;;5015055;28;20395;-69
2022/05/14 04:03:05;;;;;;;7.85;3.97;;;9.50;99.90;;;;;;5015516;28;20160;-69
2022/05/14 04:05:31;;;;;;;9.18;3.72;;;9.50;99.90;;;;;;4997631;28;20049;-69
2022/05/14 04:07:57;;;;;;;12.30;4.20;;;9.50;99.90;;;;;;5014868;28;20124;-70
2022/05/14 04:10:22;;;;;;;12.07;5.00;;;9.50;99.90;;;;;;5014594;28;20111;-69
2022/05/14 04:12:48;;;;;;;10.13;5.75;;;9.50;99.90;;;;;;5014746;28;20049;-69
2022/05/14 04:15:15;;;;;;;11.70;4.78;;;9.50;99.90;;;;;;5014759;28;20061;-69
2022/05/14 04:17:41;;;;;;;13.10;4.07;;;9.50;99.90;;;;;;5014681;28;20085;-69
2022/05/14 04:20:07;;;;;;;8.27;4.57;;;9.40;99.90;;;;;;5014188;28;20046;-69
2022/05/14 04:22:34;;;;;;;8.98;3.92;;;9.40;99.90;;;;;;5013381;28;20049;-69
2022/05/14 04:24:59;;;;;;;8.38;5.05;;;9.40;99.90;;;;;;5014548;28;20049;-69
2022/05/14 04:27:25;;;;;;;7.72;3.75;;;9.40;99.90;;;;;;5014854;28;20042;-69
2022/05/14 04:29:52;;;;;;;11.05;4.13;;;9.40;99.90;;;;;;5014300;28;20117;-70
2022/05/14 04:32:18;;;;;;;9.32;4.30;;;9.40;99.90;;;;;;5015020;28;20133;-69
2022/05/14 04:34:45;;;;;;;11.82;4.53;;;9.50;99.90;;;;;;5014439;28;20177;-70
2022/05/14 04:37:11;;;;;;;11.20;4.30;;;9.60;99.90;;;;;;5014358;28;20056;-69
2022/05/14 04:39:39;;;;;;;9.40;4.25;;;9.70;99.90;;;;;;5014302;28;20061;-69
2022/05/14 04:42:07;;;;;;;10.13;4.10;;;9.80;99.90;;;;;;5014284;28;20057;-70
2022/05/14 04:44:35;;;;;;;7.65;4.00;;;9.80;99.90;;;;;;5013635;28;20117;-69
2022/05/14 04:47:01;;;;;;;12.80;4.75;;;9.80;99.90;;;;;;5014820;28;20116;-69
2022/05/14 04:49:27;;;;;;;13.13;4.88;;;9.80;99.90;;;;;;5012917;28;20054;-69
2022/05/14 04:51:54;;;;;;;7.70;4.18;;;9.90;99.90;;;;;;5014071;28;20052;-69
2022/05/14 04:54:20;;;;;;;10.15;4.70;;;9.90;99.90;;;;;;5014609;28;20096;-70
2022/05/14 04:56:46;;;;;;;12.80;5.40;;;9.90;99.90;;;;;;5014582;28;20050;-70
2022/05/14 04:59:13;;;;;;;11.25;5.32;;;10.00;99.90;;;;;;5014462;28;20045;-70
2022/05/14 05:01:38;;;;;;;11.43;5.05;;;10.10;99.90;;;;;;5013955;28;20056;-70
2022/05/14 05:04:24;;;;;;;13.18;4.85;;;10.10;99.90;;;;;;5013766;28;20045;-69
2022/05/14 05:06:50;;;;;;;12.55;4.50;;;10.20;99.90;;;;;;5013909;28;20111;-70
2022/05/14 05:09:15;;;;;;;12.80;4.78;;;10.20;99.90;;;;;;5013814;28;20042;-69
2022/05/14 05:11:41;;;;;;;11.73;5.10;;;10.30;99.90;;;;;;5013835;28;20045;-70
2022/05/14 05:14:07;;;;;;;12.52;6.32;;;10.40;99.90;;;;;;5013756;28;20041;-70
2022/05/14 05:16:32;;;;;;;10.43;4.97;;;10.50;99.90;;;;;;5013821;28;20176;-69
2022/05/14 05:18:58;;;;;;;12.20;4.85;;;10.50;99.90;;;;;;5013762;28;20041;-70
2022/05/14 05:21:24;;;;;;;11.35;4.75;;;10.60;99.90;;;;;;5013465;28;20065;-69
2022/05/14 05:23:49;;;;;;;12.45;6.03;;;10.70;99.90;;;;;;5012814;28;20438;-69
2022/05/14 05:26:15;;;;;;;8.82;5.18;;;10.70;99.90;;;;;;5013719;28;20050;-70
2022/05/14 05:28:41;;;;;;;10.98;5.25;;;10.80;99.90;;;;;;5013946;28;20077;-69
2022/05/14 05:31:07;;;;;;;13.52;6.72;;;10.90;99.90;;;;;;5013664;28;20052;-69
2022/05/14 05:33:32;;;;;;;14.75;5.75;;;10.90;99.90;;;;;;5012707;28;20133;-69
2022/05/14 05:35:58;;;;;;;13.82;5.35;;;11.00;99.90;;;;;;5013680;28;20049;-70
2022/05/14 05:38:24;;;;;;;11.98;5.95;;;11.10;99.90;;;;;;5014252;28;20041;-73
2022/05/14 05:40:51;;;;;;;13.63;5.25;;;11.10;99.90;;;;;;5013842;28;20525;-69
2022/05/14 05:43:17;;;;;;;9.65;5.55;;;11.30;99.90;;;;;;5013735;28;20049;-69
2022/05/14 05:45:46;;;;;;;13.82;5.43;;;11.30;99.90;;;;;;5013029;28;20442;-69
2022/05/14 05:48:12;;;;;;;12.15;5.20;;;11.40;99.90;;;;;;5014032;28;20050;-70
2022/05/14 05:50:38;;;;;;;19.83;7.18;;;11.50;99.90;;;;;;5013511;28;20057;-69
2022/05/14 05:53:05;;;;;;;11.07;5.75;;;11.60;99.90;;;;;;5013454;28;20076;-70
2022/05/14 05:58:19;;;;;;;13.02;5.82;;;11.70;99.90;;;;;;5013602;28;20518;-70
2022/05/14 06:00:45;;;;;;;15.68;5.70;;;11.90;99.90;;;;;;5013437;28;20046;-70
2022/05/14 06:03:12;;;;;;;11.38;5.20;;;12.00;99.90;;;;;;5013925;28;20129;-69
2022/05/14 06:05:38;;;;;;;13.18;5.82;;;12.10;99.90;;;;;;5012436;28;20489;-69
2022/05/14 06:08:13;;;;;;;14.23;5.82;;;12.20;99.90;;;;;;5013337;28;20046;-69
2022/05/14 06:10:39;;;;;;;14.85;6.35;;;12.30;99.90;;;;;;5013314;28;20454;-69
2022/05/14 06:13:08;;;;;;;13.30;5.90;;;12.50;99.90;;;;;;5013286;28;20053;-69
2022/05/14 06:15:34;;;;;;;12.13;6.10;;;12.50;99.90;;;;;;5013244;28;20054;-70
2022/05/14 06:18:06;;;;;;;11.50;5.55;;;12.60;99.90;;;;;;5012965;28;20103;-69
2022/05/14 06:20:32;;;;;;;14.88;6.25;;;12.70;99.90;;;;;;5013222;28;20060;-69
2022/05/14 06:22:58;;;;;;;19.08;6.28;;;12.70;99.90;;;;;;5013237;28;20056;-70
2022/05/14 06:25:24;;;;;;;13.50;6.05;;;12.80;99.90;;;;;;5013948;28;20398;-69
2022/05/14 06:27:49;;;;;;;16.35;5.82;;;12.90;99.90;;;;;;5012039;28;20049;-69
2022/05/14 06:30:15;;;;;;;12.57;5.15;;;12.90;99.90;;;;;;5013431;28;20046;-70
2022/05/14 06:32:42;;;;;;;13.77;5.75;;;13.10;99.90;;;;;;5013623;28;20140;-68
2022/05/14 06:35:09;;;;;;;14.13;5.53;;;13.20;99.90;;;;;;5017278;28;20049;-69
2022/05/14 06:37:35;;;;;;;15.60;5.53;;;13.40;99.90;;;;;;5016592;28;20141;-70
2022/05/14 06:40:02;;;;;;;13.52;4.70;;;13.50;99.90;;;;;;5016953;28;20042;-70
2022/05/14 06:42:27;;;;;;;14.75;5.68;;;13.60;99.90;;;;;;5015565;28;20479;-68
2022/05/14 06:44:54;;;;;;;12.82;6.13;;;13.70;99.90;;;;;;5015429;28;20062;-69
2022/05/14 06:47:20;;;;;;;14.43;5.53;;;13.80;99.90;;;;;;5016487;28;20081;-70
2022/05/14 06:49:46;;;;;;;14.15;5.53;;;13.90;99.90;;;;;;5016378;28;20100;-69
2022/05/14 06:52:16;;;;;;;13.95;4.85;;;14.00;99.90;;;;;;5016312;28;20479;-69
2022/05/14 06:54:45;;;;;;;12.25;4.68;;;14.10;99.90;;;;;;5015658;28;20061;-68
2022/05/14 06:57:12;;;;;;;14.30;4.90;;;14.20;99.90;;;;;;5016081;28;20053;-69
2022/05/14 06:59:38;;;;;;;12.05;4.65;;;14.30;99.90;;;;;;5016955;28;20375;-69
2022/05/14 07:02:04;;;;;;;14.35;4.60;;;14.40;99.90;;;;;;5016426;28;20111;-69
2022/05/14 07:07:17;;;;;;;15.80;4.45;;;14.60;99.90;;;;;;5015882;28;20057;-69
2022/05/14 07:09:43;;;;;;;12.38;3.80;;;14.70;99.90;;;;;;5016506;28;20046;-69
2022/05/14 07:12:09;;;;;;;14.38;4.40;;;14.80;99.90;;;;;;5015966;28;20056;-69
2022/05/14 07:14:40;;;;;;;10.07;3.95;;;14.80;99.90;;;;;;5015839;28;20086;-69
2022/05/14 07:17:08;;;;;;;11.07;4.18;;;14.90;99.90;;;;;;5016002;28;20183;-69
2022/05/14 07:19:34;;;;;;;14.18;3.95;;;15.00;99.90;;;;;;5016592;28;20045;-69
2022/05/14 07:22:00;;;;;;;16.98;4.70;;;15.00;99.90;;;;;;5016287;28;20053;-69
2022/05/14 07:24:30;;;;;;;13.38;4.22;;;15.10;99.90;;;;;;5015761;28;20041;-68
2022/05/14 07:27:00;;;;;;;9.88;3.30;;;15.20;99.90;;;;;;5015717;28;20100;-69
2022/05/14 07:29:27;;;;;;;11.77;3.75;;;15.30;99.90;;;;;;5015649;28;20050;-69
2022/05/14 07:31:53;;;;;;;13.25;3.92;;;15.40;99.90;;;;;;5015624;28;20045;-69
2022/05/14 07:34:20;;;;;;;11.90;4.45;;;15.50;99.90;;;;;;5015559;28;20052;-69
2022/05/14 07:36:58;;;;;;;12.90;4.75;;;15.60;99.90;;;;;;5014618;28;20113;-69
2022/05/14 07:39:30;;;;;;;10.48;4.07;;;15.70;99.90;;;;;;5016201;28;20085;-69
2022/05/14 07:42:00;;;;;;;12.30;3.72;;;15.70;99.90;;;;;;5015365;28;20077;-69
2022/05/14 07:44:31;;;;;;;13.55;4.07;;;15.80;99.90;;;;;;5014866;28;20053;-68
2022/05/14 07:46:58;;;;;;;11.60;3.63;;;15.80;99.90;;;;;;5015313;28;20045;-68
2022/05/14 07:49:25;;;;;;;10.93;3.38;;;15.80;99.90;;;;;;5013829;28;20121;-69
2022/05/14 07:51:53;;;;;;;10.75;3.50;;;15.80;99.90;;;;;;5015000;28;20379;-70
2022/05/14 07:54:20;;;;;;;10.77;3.60;;;15.90;99.90;;;;;;5015203;28;20081;-70
2022/05/14 07:56:46;;;;;;;16.23;4.20;;;15.90;99.90;;;;;;5014911;28;20090;-69
2022/05/14 07:59:12;;;;;;;12.50;3.90;;;16.00;99.90;;;;;;5014866;28;20045;-70
2022/05/14 08:01:40;;;;;;;11.45;4.18;;;16.00;99.90;;;;;;5014952;28;20391;-70
2022/05/14 08:04:07;;;;;;;12.70;3.72;;;16.10;99.90;;;;;;5014636;28;20536;-71
2022/05/14 08:06:33;;;;;;;13.25;3.88;;;16.10;99.90;;;;;;5014882;28;20169;-71
2022/05/14 08:08:59;;;;;;;10.40;3.85;;;16.30;99.90;;;;;;5014583;28;20046;-71
2022/05/14 08:11:26;;;;;;;9.90;3.90;;;16.40;99.90;;;;;;5015037;28;20057;-71
2022/05/14 08:13:54;;;;;;;12.73;3.35;;;16.50;99.90;;;;;;5014651;28;20438;-71
2022/05/14 08:16:21;;;;;;;11.98;3.30;;;16.50;99.90;;;;;;5014659;28;20193;-70
2022/05/14 08:18:46;;;;;;;13.98;3.50;;;16.60;99.90;;;;;;5015041;28;20053;-70
2022/05/14 08:26:40;;;;;;;14.38;3.70;;;16.70;99.90;;;;;;5014554;28;20050;-70
2022/05/14 08:29:06;;;;;;;12.65;4.10;;;16.80;99.90;;;;;;5012878;28;20108;-73
2022/05/14 08:31:32;;;;;;;10.85;3.78;;;16.90;99.90;;;;;;5014425;28;20046;-69
2022/05/14 08:33:59;;;;;;;11.68;3.80;;;16.90;99.90;;;;;;5013411;28;20053;-72
2022/05/14 08:36:25;;;;;;;10.65;3.33;;;17.00;99.90;;;;;;5014309;28;20054;-69
2022/05/14 08:38:51;;;;;;;9.88;3.38;;;17.10;99.90;;;;;;5014129;28;20046;-69
2022/05/14 08:41:18;;;;;;;13.18;3.72;;;17.10;99.90;;;;;;5014128;28;20127;-69
2022/05/14 08:43:49;;;;;;;10.27;3.33;;;17.10;99.90;;;;;;5013822;28;20589;-70
2022/05/14 08:46:18;;;;;;;11.30;4.00;;;17.00;99.90;;;;;;5014660;28;20112;-71
2022/05/14 08:48:50;;;;;;;12.98;3.13;;;17.00;99.90;;;;;;5014127;28;20061;-71
2022/05/14 08:51:32;;;;;;;10.90;3.15;;;16.90;99.90;;;;;;5014834;28;20049;-71
2022/05/14 08:53:59;;;;;;;10.60;3.20;;;16.90;99.90;;;;;;5014178;28;20046;-71
2022/05/14 08:56:36;;;;;;;11.95;2.97;;;16.90;99.90;;;;;;5013211;28;20467;-69
2022/05/14 08:59:21;;;;;;;9.73;3.00;;;17.00;99.90;;;;;;5014419;28;20398;-68
2022/05/14 09:01:48;;;;;;;8.20;3.45;;;17.10;99.90;;;;;;5014779;28;20371;-69
2022/05/14 09:04:20;;;;;;;13.18;3.85;;;17.20;99.90;;;;;;5013969;28;20045;-69
2022/05/14 09:06:47;;;;;;;8.52;2.80;;;17.30;99.90;;;;;;5013245;28;20120;-70
2022/05/14 09:09:13;;;;;;;8.05;3.08;;;17.40;99.90;;;;;;5013892;28;20046;-71
2022/05/14 09:11:45;;;;;;;9.38;2.92;;;17.50;99.90;;;;;;5012592;28;20049;-71
2022/05/14 09:14:28;;;;;;;10.00;2.92;;;17.50;99.90;;;;;;5013506;28;20104;-71
2022/05/14 09:17:07;;;;;;;9.85;3.35;;;17.60;99.90;;;;;;5013734;28;20052;-70
2022/05/14 09:19:43;;;;;;;12.82;3.50;;;17.80;99.90;;;;;;5013296;28;20045;-70
2022/05/14 09:22:31;;;;;;;11.77;3.35;;;17.60;99.90;;;;;;5013760;28;20050;-70
2022/05/14 09:24:56;;;;;;;8.77;3.03;;;17.40;99.90;;;;;;5014211;28;20133;-70
2022/05/14 09:27:25;;;;;;;9.57;3.60;;;17.20;99.90;;;;;;5013746;28;20129;-69
2022/05/14 09:29:55;;;;;;;10.70;3.10;;;17.10;99.90;;;;;;5013701;28;20586;-71
2022/05/14 09:32:20;;;;;;;11.65;3.55;;;17.20;99.90;;;;;;5013837;28;20509;-71
2022/05/14 09:34:47;;;;;;;14.32;3.65;;;17.50;99.90;;;;;;5028766;28;20046;-71
2022/05/14 09:37:19;;;;;;;11.38;3.53;;;17.60;99.90;;;;;;5013693;28;20052;-70
2022/05/14 09:39:57;;;;;;;10.30;3.22;;;17.80;99.90;;;;;;5013493;28;20041;-70
2022/05/14 09:42:25;;;;;;;9.48;3.20;;;17.90;99.90;;;;;;5013480;28;20140;-70
2022/05/14 09:44:53;;;;;;;10.75;3.97;;;18.00;99.90;;;;;;5013325;28;20422;-69
2022/05/14 09:47:30;;;;;;;10.52;4.07;;;18.10;99.90;;;;;;5014278;28;20370;-69
2022/05/14 09:50:02;;;;;;;12.93;3.85;;;18.20;99.90;;;;;;5013880;28;20130;-70
2022/05/14 09:52:32;;;;;;;8.80;3.33;;;18.10;99.90;;;;;;5013468;28;20054;-69
2022/05/14 09:55:03;;;;;;;9.43;4.05;;;18.00;99.90;;;;;;5014145;28;20041;-69
2022/05/14 09:57:53;;;;;;;9.23;3.42;;;17.90;99.90;;;;;;4995827;28;20060;-70
2022/05/14 10:00:41;;;;;;;12.32;3.40;;;18.00;99.90;;;;;;5013323;28;20042;-69
2022/05/14 10:03:49;;;;;;;12.68;3.00;;;18.10;99.90;;;;;;5013273;28;20085;-70
2022/05/14 10:06:49;;;;;;;8.45;2.75;;;18.20;99.90;;;;;;5013404;28;20100;-69
2022/05/14 10:10:05;;;;;;;12.15;3.40;;;18.20;99.90;;;;;;5016322;28;20054;-69
2022/05/14 10:12:42;;;;;;;11.82;3.20;;;18.20;99.90;;;;;;4983530;28;20141;-70
2022/05/14 10:15:13;;;;;;;11.40;3.08;;;18.30;99.90;;;;;;5016961;28;20046;-69
2022/05/14 10:18:11;;;;;;;10.90;2.95;;;18.40;99.90;;;;;;5017041;28;20089;-70
2022/05/14 10:21:07;;;;;;;8.50;2.97;;;18.40;99.90;;;;;;5017651;28;20414;-69
2022/05/14 10:26:56;;;;;;;9.68;3.75;;;18.20;99.90;;;;;;5016756;28;20069;-70
2022/05/14 10:30:08;;;;;;;12.40;3.72;;;18.40;99.90;;;;;;5017245;28;20088;-68
2022/05/14 10:32:34;;;;;;;10.73;3.30;;;18.40;99.90;;;;;;5006496;28;20057;-69
2022/05/14 10:35:19;;;;;;;8.40;3.05;;;18.10;99.90;;;;;;5016526;28;20092;-70
2022/05/14 10:37:53;;;;;;;11.35;3.35;;;18.10;99.90;;;;;;5015882;28;20054;-71
2022/05/14 10:40:53;;;;;;;9.52;2.80;;;18.30;99.90;;;;;;5016437;28;20125;-69
2022/05/14 10:43:43;;;;;;;8.90;2.88;;;18.40;99.90;;;;;;5009019;28;20057;-68
2022/05/14 10:46:11;;;;;;;10.88;3.47;;;18.70;99.90;;;;;;5016209;28;20153;-70
2022/05/14 10:49:05;;;;;;;14.10;2.95;;;19.00;99.90;;;;;;5016547;28;20486;-70
2022/05/14 10:51:36;;;;;;;9.75;2.78;;;19.20;99.90;;;;;;5016378;28;20073;-70
2022/05/14 10:54:02;;;;;;;9.40;3.63;;;19.10;99.90;;;;;;5016334;28;20081;-69
2022/05/14 10:56:28;;;;;;;12.77;3.13;;;19.20;99.90;;;;;;5016205;28;20042;-68
2022/05/14 10:59:10;;;;;;;10.77;2.97;;;19.20;99.90;;;;;;5015830;28;20046;-70
2022/05/14 11:01:38;;;;;;;8.50;3.00;;;19.00;99.90;;;;;;5016095;28;20501;-70
2022/05/14 11:04:26;;;;;;;8.60;2.97;;;18.90;99.90;;;;;;5016103;28;20042;-70
2022/05/14 11:07:06;;;;;;;13.10;2.97;;;18.80;99.90;;;;;;5016807;28;20046;-70
2022/05/14 11:09:37;;;;;;;11.68;3.45;;;18.60;99.90;;;;;;5016027;28;20038;-69
2022/05/14 11:12:23;;;;;;;10.40;3.58;;;18.50;99.90;;;;;;5016188;28;20387;-69
2022/05/14 11:14:51;;;;;;;10.50;3.22;;;18.40;99.90;;;;;;5008276;28;20565;-69
2022/05/14 11:17:25;;;;;;;11.73;3.53;;;18.40;99.90;;;;;;5015713;28;20145;-68
2022/05/14 11:20:03;;;;;;;12.02;3.95;;;18.40;99.90;;;;;;5015098;28;20129;-69
2022/05/14 11:22:33;;;;;;;12.38;2.90;;;18.70;99.90;;;;;;5015706;28;20042;-69
2022/05/14 11:25:17;;;;;;;8.68;3.00;;;18.90;99.90;;;;;;5016231;28;20056;-69
2022/05/14 11:28:06;;;;;;;10.30;3.53;;;19.30;99.90;;;;;;5015540;28;20108;-70
2022/05/14 11:31:14;;;;;;;10.27;2.85;;;19.40;99.90;;;;;;5015850;28;20505;-69
2022/05/14 11:33:40;;;;;;;10.48;3.10;;;19.30;99.90;;;;;;5004263;28;20127;-70
2022/05/14 11:36:12;;;;;;;8.38;2.85;;;19.40;99.90;;;;;;5015538;28;20455;-69
2022/05/14 11:38:44;;;;;;;8.30;2.80;;;19.40;99.90;;;;;;5015381;28;20084;-69
2022/05/14 11:41:37;;;;;;;9.02;2.63;;;19.30;99.90;;;;;;5015371;28;20096;-70
2022/05/14 11:44:06;;;;;;;10.35;2.95;;;19.20;99.90;;;;;;5015589;28;20108;-70
2022/05/14 11:46:49;;;;;;;12.82;3.10;;;19.10;99.90;;;;;;5015329;28;20101;-69
2022/05/14 11:49:20;;;;;;;10.43;2.90;;;19.00;99.90;;;;;;5015742;28;20053;-68
2022/05/14 11:51:57;;;;;;;10.65;2.80;;;18.90;99.90;;;;;;5015184;28;20050;-69
2022/05/14 11:54:44;;;;;;;10.38;2.72;;;19.00;99.90;;;;;;5015143;28;20096;-69
2022/05/14 11:57:25;;;;;;;8.65;3.03;;;19.00;99.90;;;;;;5013965;28;20046;-69
2022/05/14 12:00:03;;;;;;;12.10;3.25;;;19.20;99.90;;;;;;5014930;28;20046;-69
2022/05/14 12:02:51;;;;;;;12.38;3.03;;;19.40;99.90;;;;;;5015034;28;20133;-70
2022/05/14 12:05:27;;;;;;;9.85;2.47;;;19.50;99.90;;;;;;5014903;28;20056;-68
2022/05/14 12:07:56;;;;;;;7.95;2.95;;;19.50;99.90;;;;;;5014857;28;20049;-68
2022/05/14 12:11:04;;;;;;;8.70;2.60;;;19.40;99.90;;;;;;5014787;28;20044;-69
2022/05/14 12:13:58;;;;;;;12.05;2.97;;;19.30;99.90;;;;;;5014759;28;20080;-69
2022/05/14 12:16:47;;;;;;;8.40;2.90;;;19.20;99.90;;;;;;5000313;28;20093;-69
2022/05/14 12:19:26;;;;;;;10.20;2.88;;;19.20;99.90;;;;;;5015159;28;20046;-69
2022/05/14 12:21:53;;;;;;;12.07;2.88;;;19.30;99.90;;;;;;5014504;28;20076;-70
2022/05/14 12:24:26;;;;;;;13.38;2.97;;;19.30;99.90;;;;;;5014560;28;20057;-69
2022/05/14 12:26:52;;;;;;;10.23;3.00;;;19.30;99.90;;;;;;5013859;28;20045;-69
2022/05/14 12:29:28;;;;;;;11.77;2.88;;;19.20;99.90;;;;;;5015306;28;20376;-69
2022/05/14 12:34:48;;;;;;;10.82;3.30;;;19.30;99.90;;;;;;5015197;28;20046;-69
2022/05/14 12:37:27;;;;;;;10.93;2.85;;;19.30;99.90;;;;;;5014292;28;20116;-69
2022/05/14 12:39:56;;;;;;;9.55;2.78;;;19.50;99.90;;;;;;5014226;28;20052;-69
2022/05/14 12:42:36;;;;;;;6.85;2.45;;;19.60;99.90;;;;;;5014480;28;20108;-68
2022/05/14 12:45:03;;;;;;;11.25;3.15;;;19.60;99.90;;;;;;5014045;28;20054;-68
2022/05/14 12:47:31;;;;;;;7.95;2.80;;;19.60;99.90;;;;;;5015048;28;20056;-70
2022/05/14 12:49:58;;;;;;;9.18;3.03;;;19.50;99.90;;;;;;5014100;28;20069;-70
2022/05/14 12:52:32;;;;;;;10.60;3.13;;;19.40;99.90;;;;;;5014136;28;20050;-70
2022/05/14 12:55:14;;;;;;;10.80;2.88;;;19.40;99.90;;;;;;5014114;28;20049;-70
2022/05/14 12:57:43;;;;;;;11.05;2.63;;;19.40;99.90;;;;;;5014635;28;20124;-69
2022/05/14 13:00:11;;;;;;;8.98;2.50;;;19.40;99.90;;;;;;5013918;28;20050;-67
2022/05/14 13:02:46;;;;;;;10.02;2.83;;;19.50;99.90;;;;;;5014035;28;20050;-69
2022/05/14 13:05:20;;;;;;;10.00;3.13;;;19.70;99.90;;;;;;5013708;28;20494;-71
2022/05/14 13:07:57;;;;;;;9.77;2.60;;;19.90;99.90;;;;;;5013669;28;20291;-69
2022/05/14 13:10:29;;;;;;;9.73;2.85;;;20.00;99.90;;;;;;5013869;28;20049;-69
2022/05/14 13:12:58;;;;;;;10.25;3.30;;;20.00;99.90;;;;;;5013883;28;20088;-69
2022/05/14 13:15:42;;;;;;;12.57;3.70;;;20.00;99.90;;;;;;5013734;28;20406;-70
2022/05/14 13:18:19;;;;;;;11.90;3.70;;;19.90;99.90;;;;;;5012619;28;20050;-70
2022/05/14 13:20:45;;;;;;;8.70;2.95;;;19.80;99.90;;;;;;5014508;28;20078;-69
2022/05/14 13:23:21;;;;;;;11.18;3.10;;;19.70;99.90;;;;;;5012744;28;20049;-70